Aérodrome :







RETROUVEZ-NOUS SUR...

 
LOGIN :

S'inscrire | Disclaimer

   EN    FR    IT 

 









Légende :    VFR   VFR Marginal   IFR   IFR Intensif   IFR Très Intensif
Visi : 
Plafond : 
>= 8 km
>= 3000ft
5 à 8 km
1000 à 3000 ft
1500m à 5 km
500 à 1000 ft
800 à 1500m
200 à 500 ft
< 800m
< 200 ft
Symboles :   Orages  Brouillard  Fortes neiges  Fortes précipitations  Vent > 20 kt






- Altitude de l'aérodrome : 342 ft


KCON - Concord Municipal

DERNIER METAR :
  • 200451Z AUTO 32010G22KT 10SM OVC095 M09/M16 A2992 RMK AO2 SLP139 T10891161 400391128

METARs EXPIRÉS :
  • 200351Z AUTO 32017G25KT 10SM OVC070 M09/M16 A2991 RMK AO2 PK WND 32031/0322 SLP132 T10891161
  • 200251Z AUTO 33011KT 10SM BKN070 OVC095 M09/M16 A2988 RMK AO2 SLP126 T10891156 51036

TAF KCON
Valide du 20 à 06h jusqu'au 21 à 06h UTC


200520Z 2006/2106 32013KT P6SM SCT070
FM210000 31005KT P6SM FEW250



MET'MAP, la Météo Aéronautique d'un coup d'oeil ! - Copyright ORBIFLY Décembre 2007 - Disclaimer

ORBIFLY MET'MAP TEAM :

Programmation & Développement : Alexandra Zaïnal
Sur une idée originale de : Baudouin d'Aumeries
Assistance à la programmation : Marc-Olivier Méhu
Soutien technique & logistique : Manuel Goepfert

Contact : metmap@orbifly.com




SOURCES & CREDITS :

   NOAA